Time;durP1;ratioP1;P1;durP2;ratioP2;P2;SDS_P1;SDS_P2;PMS_P1;PMS_P2;Temp;Humidity;BMP_temperature;BMP_pressure;BME280_temperature;BME280_humidity;BME280_pressure;Samples;Min_cycle;Max_cycle;Signal;HPM_P1;HPM_P2
2023/09/15 00:01:08;;;;;;;5.25;2.42;;;;;;;13.54;85.63;101580.28;5042619;28;20071;-76
2023/09/15 00:03:35;;;;;;;4.07;2.78;;;;;;;13.54;86.26;101589.06;5066255;28;20066;-75
2023/09/15 00:06:04;;;;;;;6.63;3.00;;;;;;;13.55;86.97;101580.19;5064183;28;20556;-75
2023/09/15 00:08:31;;;;;;;6.68;2.92;;;;;;;13.52;86.79;101569.81;5050071;28;20821;-77
2023/09/15 00:10:58;;;;;;;5.68;3.00;;;;;;;13.55;87.18;101582.84;5060376;28;20105;-80
2023/09/15 00:13:27;;;;;;;6.40;3.00;;;;;;;13.55;87.13;101582.84;5035766;28;20047;-77
2023/09/15 00:15:57;;;;;;;4.82;2.72;;;;;;;13.55;87.58;101584.63;5059475;28;20051;-75
2023/09/15 00:18:50;;;;;;;6.82;3.05;;;;;;;13.55;88.77;101585.47;5083058;28;20074;-79
2023/09/15 00:21:19;;;;;;;8.45;3.92;;;;;;;13.54;88.94;101577.63;5089462;28;20058;-75
2023/09/15 00:23:50;;;;;;;5.22;2.75;;;;;;;13.55;88.71;101582.00;5075322;28;20040;-75
2023/09/15 00:26:23;;;;;;;6.97;2.75;;;;;;;13.54;88.91;101585.56;5064669;28;20534;-77
2023/09/15 00:28:50;;;;;;;4.53;2.55;;;;;;;13.53;89.37;101592.66;5066906;28;20109;-76
2023/09/15 00:31:18;;;;;;;4.03;2.80;;;;;;;13.52;89.12;101587.47;5061328;28;20444;-76
2023/09/15 00:33:45;;;;;;;6.10;3.17;;;;;;;13.52;90.52;101593.59;5064801;28;20148;-73
2023/09/15 00:36:12;;;;;;;5.05;2.75;;;;;;;13.50;90.14;101592.81;5081737;28;20062;-74
2023/09/15 00:38:40;;;;;;;5.22;2.95;;;;;;;13.50;90.14;101587.53;5082519;28;20135;-78
2023/09/15 00:41:07;;;;;;;7.63;3.22;;;;;;;13.51;90.01;101599.84;5048502;28;20512;-78
2023/09/15 00:43:34;;;;;;;4.13;2.72;;;;;;;13.51;90.24;101589.28;5083560;28;20078;-74
2023/09/15 00:46:02;;;;;;;5.97;2.80;;;;;;;13.49;91.33;101599.06;5082344;28;20093;-75
2023/09/15 00:48:30;;;;;;;5.45;2.65;;;;;;;13.47;92.56;101586.88;5065917;28;20052;-76
2023/09/15 00:50:57;;;;;;;4.45;2.72;;;;;;;13.45;91.64;101597.53;5057215;28;20055;-76
2023/09/15 00:53:25;;;;;;;6.45;2.72;;;;;;;13.45;91.42;101584.28;5086609;28;20056;-76
2023/09/15 00:55:52;;;;;;;7.05;3.40;;;;;;;13.43;92.05;101586.19;5062255;28;20509;-76
2023/09/15 00:58:20;;;;;;;3.78;2.65;;;;;;;13.42;91.73;101590.63;5049942;28;20101;-76
2023/09/15 01:00:48;;;;;;;4.28;2.80;;;;;;;13.42;92.05;101589.78;5083912;28;20093;-78
2023/09/15 01:03:19;;;;;;;7.53;3.33;;;;;;;13.45;92.39;101583.44;5069464;28;20087;-77
2023/09/15 01:05:46;;;;;;;5.80;2.80;;;;;;;13.43;92.15;101583.53;5081782;28;20148;-78
2023/09/15 01:08:14;;;;;;;6.28;3.05;;;;;;;13.43;92.61;101588.84;5049713;28;20123;-77
2023/09/15 01:10:41;;;;;;;4.97;3.10;;;;;;;13.39;92.79;101582.00;5051848;28;20083;-77
2023/09/15 01:13:08;;;;;;;4.30;2.75;;;;;;;13.36;92.66;101583.00;5052826;28;20048;-78
2023/09/15 01:15:46;;;;;;;7.03;3.25;;;;;;;13.35;92.89;101577.81;5066425;28;20047;-77
2023/09/15 01:18:16;;;;;;;5.20;3.05;;;;;;;13.35;94.27;101585.75;5055511;28;20076;-76
2023/09/15 01:21:02;;;;;;;4.68;2.67;;;;;;;13.31;94.13;101581.56;5088924;28;20146;-74
2023/09/15 01:24:05;;;;;;;4.15;3.00;;;;;;;13.31;94.46;101587.72;5069811;28;20399;-78
2023/09/15 01:27:03;;;;;;;4.87;2.97;;;;;;;13.29;95.83;101586.09;5082785;28;20058;-75
2023/09/15 01:29:30;;;;;;;5.13;2.95;;;;;;;13.27;95.70;101582.66;5064242;28;22448;-70
2023/09/15 01:32:00;;;;;;;4.28;2.60;;;;;;;13.23;95.63;101579.34;5086443;28;20083;-74
2023/09/15 01:34:28;;;;;;;5.32;2.70;;;;;;;13.20;95.96;101582.13;5069747;28;20071;-74
2023/09/15 01:36:56;;;;;;;6.78;2.70;;;;;;;13.17;96.25;101577.84;5082349;28;20048;-72
2023/09/15 01:39:23;;;;;;;4.55;2.53;;;;;;;13.16;96.94;101578.78;5066289;28;20579;-71
2023/09/15 01:41:51;;;;;;;6.25;3.20;;;;;;;13.16;97.00;101580.59;5066521;28;20109;-70
2023/09/15 01:44:18;;;;;;;5.97;3.22;;;;;;;13.16;96.92;101575.31;5068868;28;20144;-72
2023/09/15 01:46:46;;;;;;;4.97;3.42;;;;;;;13.17;96.72;101584.94;5063836;28;20064;-72
2023/09/15 01:49:16;;;;;;;5.90;3.15;;;;;;;13.17;96.38;101579.66;5060205;28;20051;-72
2023/09/15 01:51:45;;;;;;;6.50;3.10;;;;;;;13.16;96.74;101581.44;5065718;28;20084;-73
2023/09/15 01:54:12;;;;;;;5.22;3.03;;;;;;;13.15;97.68;101577.09;5067265;28;20076;-72
2023/09/15 01:56:40;;;;;;;6.32;3.50;;;;;;;13.15;97.47;101584.19;5029068;28;20051;-71
2023/09/15 01:59:07;;;;;;;5.75;3.40;;;;;;;13.14;97.96;101578.00;5082351;28;20147;-70
2023/09/15 02:01:35;;;;;;;4.95;3.33;;;;;;;13.12;98.34;101582.53;5063670;28;20530;-72
2023/09/15 02:04:03;;;;;;;5.57;3.20;;;;;;;13.13;97.65;101578.97;5049376;28;20177;-73
2023/09/15 02:06:32;;;;;;;5.18;3.38;;;;;;;13.13;97.88;101586.03;5049186;28;20829;-74
2023/09/15 02:09:00;;;;;;;5.30;3.20;;;;;;;13.09;98.54;101573.91;5082966;28;20052;-71
2023/09/15 02:11:27;;;;;;;3.97;3.00;;;;;;;13.07;98.69;101583.75;5048637;28;20056;-73
2023/09/15 02:13:54;;;;;;;4.95;3.10;;;;;;;13.05;99.00;101577.66;5050968;28;20503;-72
2023/09/15 02:16:24;;;;;;;5.80;2.90;;;;;;;13.04;98.68;101583.91;5061885;28;20113;-72
2023/09/15 02:18:51;;;;;;;7.55;3.35;;;;;;;13.03;99.01;101580.41;5033617;28;20128;-73
2023/09/15 02:21:19;;;;;;;9.35;3.50;;;;;;;13.02;98.85;101586.63;5065865;28;20125;-75
2023/09/15 02:23:46;;;;;;;6.72;3.90;;;;;;;13.01;99.65;101587.53;5068988;28;20084;-74
2023/09/15 02:26:13;;;;;;;11.27;4.50;;;;;;;13.00;100.00;101587.63;5062287;28;21101;-77
2023/09/15 02:28:41;;;;;;;8.02;3.72;;;;;;;12.96;100.00;101586.94;5069408;28;20135;-78
2023/09/15 02:31:08;;;;;;;5.78;3.53;;;;;;;12.95;100.00;101587.88;5071682;28;20056;-76
2023/09/15 02:33:35;;;;;;;13.18;4.20;;;;;;;12.95;100.00;101581.75;5063406;28;20046;-77
2023/09/15 02:36:03;;;;;;;7.60;3.92;;;;;;;12.92;100.00;101593.31;5064227;28;20080;-74
2023/09/15 02:38:31;;;;;;;5.13;3.20;;;;;;;12.95;99.87;101589.69;5057214;28;20491;-74
2023/09/15 02:40:58;;;;;;;4.82;3.80;;;;;;;12.93;100.00;101587.97;5055708;28;20089;-75
2023/09/15 02:43:26;;;;;;;6.28;3.45;;;;;;;12.94;100.00;101580.91;5065263;28;20045;-75
2023/09/15 02:45:53;;;;;;;9.23;4.05;;;;;;;12.95;100.00;101579.94;5048583;28;20060;-76
2023/09/15 02:48:21;;;;;;;5.97;3.72;;;;;;;12.92;100.00;101585.38;5070019;28;20506;-76
2023/09/15 02:50:48;;;;;;;7.63;4.45;;;;;;;12.94;100.00;101586.19;5085581;28;20064;-75
2023/09/15 02:53:16;;;;;;;7.80;3.40;;;;;;;12.91;100.00;101581.03;5070207;28;20479;-75
2023/09/15 02:55:54;;;;;;;6.15;4.00;;;;;;;12.90;100.00;101585.47;5087114;28;20075;-75
2023/09/15 02:58:21;;;;;;;5.10;3.72;;;;;;;12.87;100.00;101576.84;5080496;28;20060;-77
2023/09/15 03:00:49;;;;;;;5.82;3.50;;;;;;;12.88;100.00;101575.94;5064988;28;20091;-77
2023/09/15 03:03:16;;;;;;;5.30;3.80;;;;;;;12.87;100.00;101583.00;5070131;28;20051;-75
2023/09/15 03:05:44;;;;;;;7.00;4.25;;;;;;;12.86;100.00;101577.81;5082778;28;20040;-76
2023/09/15 03:08:12;;;;;;;6.85;3.80;;;;;;;12.86;100.00;101575.16;5065624;28;20624;-75
2023/09/15 03:10:40;;;;;;;6.70;3.83;;;;;;;12.84;100.00;101575.25;5069770;28;20052;-71
2023/09/15 03:13:08;;;;;;;7.72;3.72;;;;;;;12.83;100.00;101564.75;5066813;28;20036;-77
2023/09/15 03:15:35;;;;;;;5.72;3.53;;;;;;;12.83;100.00;101567.38;5065451;28;20505;-77
2023/09/15 03:18:04;;;;;;;8.23;3.75;;;;;;;12.80;100.00;101560.50;5065556;28;20082;-76
2023/09/15 03:20:34;;;;;;;4.90;3.35;;;;;;;12.78;100.00;101558.84;5085631;28;20114;-77
2023/09/15 03:23:02;;;;;;;5.38;4.03;;;;;;;12.75;100.00;101561.69;5035531;28;20384;-78
2023/09/15 03:25:31;;;;;;;7.50;4.00;;;;;;;12.72;100.00;101570.59;5046080;28;20083;-75
2023/09/15 03:27:59;;;;;;;6.97;4.10;;;;;;;12.74;100.00;101576.66;5047527;28;20502;-75
2023/09/15 03:30:26;;;;;;;7.80;4.22;;;;;;;12.74;100.00;101570.50;5043532;28;20081;-75
2023/09/15 03:32:53;;;;;;;7.68;4.57;;;;;;;12.71;100.00;101570.69;5061021;28;20051;-74
2023/09/15 03:35:21;;;;;;;8.52;4.45;;;;;;;12.71;100.00;101571.56;5066158;28;20044;-75
2023/09/15 03:37:48;;;;;;;8.10;5.07;;;;;;;12.71;100.00;101568.06;5081616;28;20064;-75
2023/09/15 03:40:15;;;;;;;9.45;4.05;;;;;;;12.70;100.00;101563.69;5081850;28;20387;-75
2023/09/15 03:42:43;;;;;;;7.70;4.45;;;;;;;12.70;100.00;101563.69;5061496;28;20084;-79
2023/09/15 03:45:10;;;;;;;8.15;4.93;;;;;;;12.70;100.00;101569.84;5083784;28;20556;-77
2023/09/15 03:47:37;;;;;;;9.05;4.97;;;;;;;12.68;100.00;101567.28;5046347;28;20075;-76
2023/09/15 03:50:08;;;;;;;11.77;4.18;;;;;;;12.67;100.00;101564.72;5085309;28;20048;-78
2023/09/15 03:52:36;;;;;;;6.03;3.95;;;;;;;12.67;100.00;101564.72;5038956;28;20056;-76
2023/09/15 03:55:04;;;;;;;15.60;4.53;;;;;;;12.65;100.00;101566.56;5032618;28;20055;-76
2023/09/15 03:57:46;;;;;;;7.43;4.85;;;;;;;12.64;100.00;101565.72;5063245;28;20079;-76
2023/09/15 04:00:17;;;;;;;7.25;5.00;;;;;;;12.62;100.00;101575.53;5062407;28;20102;-76
2023/09/15 04:02:44;;;;;;;5.18;4.18;;;;;;;12.63;100.00;101571.09;5080930;28;20071;-76
2023/09/15 04:05:13;;;;;;;8.45;3.97;;;;;;;12.61;100.00;101568.53;5080887;28;20052;-76
2023/09/15 04:07:40;;;;;;;10.75;4.45;;;;;;;12.62;100.00;101572.88;5051831;28;20055;-77
2023/09/15 04:10:08;;;;;;;6.65;3.92;;;;;;;12.62;100.00;101572.03;5065072;28;20068;-76
2023/09/15 04:12:35;;;;;;;9.45;4.60;;;;;;;12.59;100.00;101562.47;5047658;28;20052;-76
2023/09/15 04:15:06;;;;;;;9.43;4.70;;;;;;;12.56;100.00;101569.69;5061549;28;20048;-75
2023/09/15 04:17:33;;;;;;;7.35;4.43;;;;;;;12.53;100.00;101578.66;5047225;28;20121;-75
2023/09/15 04:20:01;;;;;;;7.60;4.60;;;;;;;12.52;100.00;101582.22;5067298;28;20044;-78
2023/09/15 04:22:28;;;;;;;5.82;4.05;;;;;;;12.52;100.00;101576.06;5086919;28;20514;-78
2023/09/15 04:24:56;;;;;;;6.93;4.63;;;;;;;12.51;100.00;101585.78;5054120;28;20495;-77
2023/09/15 04:27:23;;;;;;;10.30;4.53;;;;;;;12.49;100.00;101571.81;5053976;28;20433;-80
2023/09/15 04:29:53;;;;;;;9.43;5.00;;;;;;;12.48;100.00;101580.69;5049522;28;20047;-77
2023/09/15 04:32:20;;;;;;;4.82;3.88;;;;;;;12.46;100.00;101579.88;5034876;28;20126;-76
2023/09/15 04:34:49;;;;;;;7.03;4.68;;;;;;;12.47;100.00;101576.31;5084313;28;20067;-78
2023/09/15 04:37:18;;;;;;;7.13;4.38;;;;;;;12.48;100.00;101580.69;5050398;28;20081;-76
2023/09/15 04:39:45;;;;;;;9.15;4.53;;;;;;;12.48;100.00;101580.69;5067431;28;20060;-76
2023/09/15 04:42:14;;;;;;;9.55;4.45;;;;;;;12.47;100.00;101584.22;5030078;28;20135;-79
2023/09/15 04:44:41;;;;;;;9.18;5.05;;;;;;;12.47;100.00;101584.22;5067740;28;20113;-77
2023/09/15 04:47:09;;;;;;;8.20;5.18;;;;;;;12.48;100.00;101585.09;5054626;28;20051;-75
2023/09/15 04:49:36;;;;;;;11.02;5.28;;;;;;;12.47;100.00;101578.94;5041890;28;20544;-76
2023/09/15 04:52:07;;;;;;;9.43;5.47;;;;;;;12.47;100.00;101584.22;5085332;28;20134;-76
2023/09/15 04:54:35;;;;;;;15.15;5.47;;;;;;;12.49;100.00;101579.75;5088019;28;20048;-76
2023/09/15 04:57:04;;;;;;;11.82;5.47;;;;;;;12.52;100.00;101587.50;5068535;28;20063;-75
2023/09/15 04:59:32;;;;;;;8.38;5.10;;;;;;;12.55;100.00;101584.69;5085458;28;20091;-76
2023/09/15 05:01:59;;;;;;;9.63;5.35;;;;;;;12.60;100.00;101589.72;5066806;28;20098;-77
2023/09/15 05:04:27;;;;;;;11.00;5.18;;;;;;;12.63;100.00;101595.72;5084544;28;20148;-73
2023/09/15 05:06:54;;;;;;;9.20;5.75;;;;;;;12.66;100.00;101594.72;5068364;28;20085;-76
2023/09/15 05:09:21;;;;;;;11.50;5.88;;;;;;;12.67;100.00;101591.97;5032296;28;20052;-76
2023/09/15 05:11:52;;;;;;;10.35;6.13;;;;;;;12.65;100.00;101593.88;5057488;28;20055;-76
2023/09/15 05:14:19;;;;;;;11.10;5.93;;;;;;;12.70;100.00;101582.19;5065390;28;20703;-76
2023/09/15 05:16:47;;;;;;;12.23;6.25;;;;;;;12.75;100.00;101585.47;5058846;28;20117;-77
2023/09/15 05:19:14;;;;;;;12.73;6.47;;;;;;;12.81;100.00;101585.13;5044807;28;20080;-78
2023/09/15 05:21:41;;;;;;;13.15;5.55;;;;;;;12.84;100.00;101587.63;5072640;28;20040;-76
2023/09/15 05:24:09;;;;;;;8.05;5.70;;;;;;;12.90;100.00;101589.91;5048783;28;20063;-78
2023/09/15 05:26:36;;;;;;;11.48;5.72;;;;;;;12.98;100.00;101593.00;5068977;28;20151;-77
2023/09/15 05:29:04;;;;;;;10.23;5.50;;;;;;;13.03;100.00;101598.06;5065337;28;20071;-77
2023/09/15 05:31:31;;;;;;;11.68;6.78;;;;;;;13.08;100.00;101599.50;5061300;28;20039;-75
2023/09/15 05:34:00;;;;;;;11.48;5.53;;;;;;;13.13;100.00;101599.25;5057125;28;20040;-75
2023/09/15 05:36:28;;;;;;;9.18;5.65;;;;;;;13.17;100.00;101604.28;5067751;28;20067;-76
2023/09/15 05:38:55;;;;;;;10.23;5.75;;;;;;;13.20;100.00;101603.28;5084280;28;20106;-76
2023/09/15 05:41:22;;;;;;;9.85;6.10;;;;;;;13.26;100.00;101607.41;5066130;28;20055;-77
2023/09/15 05:43:49;;;;;;;18.30;6.05;;;;;;;13.30;100.00;101601.88;5066709;28;20064;-74
2023/09/15 05:46:17;;;;;;;8.50;4.60;;;;;;;13.36;100.00;101596.25;5064520;28;20145;-76
2023/09/15 05:48:44;;;;;;;7.78;5.20;;;;;;;13.42;100.00;101598.56;5054352;28;20083;-75
2023/09/15 05:51:13;;;;;;;8.45;5.10;;;;;;;13.49;100.00;101604.34;5070053;28;20052;-74
2023/09/15 05:53:41;;;;;;;8.00;5.85;;;;;;;13.56;100.00;101599.59;5091753;28;20048;-75
2023/09/15 05:56:08;;;;;;;12.93;7.32;;;;;;;13.64;100.00;101600.00;5085685;28;20102;-75
2023/09/15 05:58:36;;;;;;;9.38;6.50;;;;;;;13.73;100.00;101603.91;5054822;28;20534;-76
2023/09/15 06:01:06;;;;;;;7.82;5.45;;;;;;;13.77;100.00;101606.28;5058716;28;20101;-77
2023/09/15 06:03:36;;;;;;;6.60;5.43;;;;;;;13.83;100.00;101602.47;5065511;28;20079;-75
2023/09/15 06:06:03;;;;;;;8.82;4.72;;;;;;;13.88;100.00;101603.06;5084092;28;20130;-76
2023/09/15 06:08:31;;;;;;;8.32;4.80;;;;;;;13.94;100.00;101605.34;5052510;28;20062;-76
2023/09/15 06:11:00;;;;;;;9.52;5.00;;;;;;;14.05;100.00;101610.00;5055523;28;20084;-75
2023/09/15 06:13:27;;;;;;;8.02;5.18;;;;;;;14.12;100.00;101609.56;5067214;28;20091;-76
2023/09/15 06:15:55;;;;;;;13.20;4.60;;;;;;;14.19;100.00;101607.44;5085027;28;20083;-74
2023/09/15 06:18:23;;;;;;;7.22;4.38;;;;;;;14.32;100.00;101608.44;5050822;28;20063;-75
2023/09/15 06:20:55;;;;;;;6.93;4.57;;;;;;;14.39;100.00;101608.91;5069503;28;20052;-75
2023/09/15 06:23:22;;;;;;;6.95;4.55;;;;;;;14.50;99.79;101603.00;5071520;28;20068;-76
2023/09/15 06:25:51;;;;;;;8.77;4.28;;;;;;;14.61;99.58;101609.34;5072251;28;20144;-76
2023/09/15 06:28:18;;;;;;;7.20;4.65;;;;;;;14.65;98.96;101610.88;5086368;28;20044;-74
2023/09/15 06:30:50;;;;;;;6.15;4.30;;;;;;;14.76;98.64;101612.03;5036948;28;20044;-75
2023/09/15 06:33:17;;;;;;;9.32;4.43;;;;;;;14.87;97.96;101604.28;5066688;28;20052;-76
2023/09/15 06:35:45;;;;;;;7.95;4.38;;;;;;;14.99;97.29;101607.97;5034608;28;20055;-75
2023/09/15 06:38:12;;;;;;;9.25;4.55;;;;;;;15.07;97.13;101603.88;5062369;28;20082;-75
2023/09/15 06:40:40;;;;;;;5.75;4.00;;;;;;;15.25;96.63;101611.66;5082917;28;20052;-75
2023/09/15 06:43:07;;;;;;;7.68;4.30;;;;;;;15.38;95.18;101612.59;5093682;28;20109;-78
2023/09/15 06:45:35;;;;;;;9.82;4.35;;;;;;;15.51;94.69;101613.50;5071509;28;20078;-77
2023/09/15 06:48:03;;;;;;;10.07;4.63;;;;;;;15.62;93.63;101615.47;5050309;28;20055;-75
2023/09/15 06:50:30;;;;;;;10.57;4.93;;;;;;;15.74;93.25;101621.84;5037437;28;20052;-75
2023/09/15 06:52:58;;;;;;;8.57;4.60;;;;;;;15.84;92.98;101623.78;5085808;28;20091;-75
2023/09/15 06:55:25;;;;;;;7.00;3.53;;;;;;;15.95;92.33;101623.09;5086518;28;20066;-75
2023/09/15 06:57:53;;;;;;;6.38;3.92;;;;;;;16.08;91.48;101623.16;5084206;28;20090;-76
2023/09/15 07:00:21;;;;;;;9.95;3.78;;;;;;;16.17;90.33;101619.88;5041305;28;20064;-74
2023/09/15 07:02:49;;;;;;;6.90;4.28;;;;;;;16.21;90.15;101618.72;5063934;28;20135;-75
2023/09/15 07:05:16;;;;;;;6.93;3.88;;;;;;;16.29;89.37;101620.84;5082184;28;20075;-75
2023/09/15 07:07:43;;;;;;;8.23;4.07;;;;;;;16.33;88.92;101614.38;5084811;28;20044;-74
2023/09/15 07:10:16;;;;;;;5.82;3.63;;;;;;;16.45;88.49;101613.56;5067926;28;20088;-81
2023/09/15 07:12:45;;;;;;;13.07;4.43;;;;;;;16.66;87.74;101614.75;5053903;28;20098;-75
2023/09/15 07:15:13;;;;;;;7.07;4.30;;;;;;;16.83;87.12;101612.75;5064868;28;20395;-76
2023/09/15 07:17:42;;;;;;;6.00;3.42;;;;;;;16.85;85.79;101603.72;5079031;28;20048;-76
2023/09/15 07:20:09;;;;;;;7.97;4.20;;;;;;;16.93;85.05;101605.81;5085967;28;20044;-76
2023/09/15 07:22:37;;;;;;;5.93;3.78;;;;;;;17.04;85.13;101603.28;5084762;28;20048;-76
2023/09/15 07:25:05;;;;;;;9.25;4.03;;;;;;;17.13;84.37;101607.09;5057214;28;20076;-75
2023/09/15 07:27:34;;;;;;;11.02;3.65;;;;;;;17.24;83.42;101612.50;5085280;28;20049;-74
2023/09/15 07:30:02;;;;;;;9.15;5.10;;;;;;;17.31;83.23;101613.75;5063058;28;20060;-75
2023/09/15 07:32:29;;;;;;;6.22;3.55;;;;;;;17.37;82.34;101613.31;5051912;28;20051;-75
2023/09/15 07:34:59;;;;;;;7.13;3.67;;;;;;;17.48;82.16;101615.22;5086381;28;20036;-76
2023/09/15 07:37:26;;;;;;;7.63;3.72;;;;;;;17.52;81.18;101611.38;5083348;28;20051;-76
2023/09/15 07:39:56;;;;;;;6.47;3.67;;;;;;;17.59;81.20;101609.09;5084471;28;20075;-76
2023/09/15 07:42:24;;;;;;;6.18;3.75;;;;;;;17.75;80.33;101615.06;5082112;28;20048;-74
2023/09/15 07:44:53;;;;;;;7.38;4.22;;;;;;;17.81;79.66;101619.06;5085293;28;20075;-75
2023/09/15 07:47:21;;;;;;;5.18;3.53;;;;;;;17.90;79.29;101619.25;5069064;28;20051;-77
2023/09/15 07:49:49;;;;;;;6.70;3.67;;;;;;;18.07;79.10;101622.47;5087269;28;20043;-76
2023/09/15 07:52:16;;;;;;;5.45;3.60;;;;;;;18.22;78.35;101619.50;5052382;28;20056;-74
2023/09/15 07:54:44;;;;;;;7.25;4.22;;;;;;;18.29;76.82;101617.25;5086410;28;20105;-75
2023/09/15 07:57:11;;;;;;;8.07;4.40;;;;;;;18.26;76.74;101617.47;5047968;28;20101;-75
2023/09/15 07:59:39;;;;;;;8.00;3.60;;;;;;;18.38;76.51;101615.69;5067965;28;20088;-76
2023/09/15 08:02:08;;;;;;;6.10;3.72;;;;;;;18.32;76.00;101613.47;5047164;28;20068;-75
2023/09/15 08:04:35;;;;;;;8.23;4.20;;;;;;;18.21;75.73;101617.81;5069300;28;20040;-75
2023/09/15 08:07:05;;;;;;;5.30;3.42;;;;;;;18.43;75.66;101618.84;5065590;28;20099;-75
2023/09/15 08:09:33;;;;;;;9.10;4.03;;;;;;;18.51;75.66;101623.56;5048334;28;20044;-75
2023/09/15 08:12:00;;;;;;;5.75;3.80;;;;;;;18.78;75.43;101623.31;5066075;28;20127;-76
2023/09/15 08:14:29;;;;;;;6.68;4.07;;;;;;;18.94;74.42;101623.81;5083518;28;20044;-74
2023/09/15 08:16:57;;;;;;;6.18;3.33;;;;;;;19.07;73.17;101621.88;5067198;28;20632;-76
2023/09/15 08:19:25;;;;;;;6.85;3.30;;;;;;;19.15;72.83;101615.94;5049007;28;20091;-74
2023/09/15 08:21:52;;;;;;;7.93;3.55;;;;;;;19.14;72.18;101615.09;5082280;28;20564;-74
2023/09/15 08:24:22;;;;;;;8.13;3.30;;;;;;;19.25;71.89;101611.56;5079283;28;20131;-75
2023/09/15 08:26:50;;;;;;;9.77;3.63;;;;;;;19.34;71.42;101610.81;5066359;28;20113;-76
2023/09/15 08:29:17;;;;;;;6.03;3.50;;;;;;;19.51;71.26;101609.47;5086524;28;20080;-76
2023/09/15 08:31:44;;;;;;;7.60;3.95;;;;;;;19.58;70.99;101607.13;5065105;28;20143;-76
2023/09/15 08:34:12;;;;;;;6.70;3.65;;;;;;;19.69;70.28;101610.69;5085970;28;20048;-74
2023/09/15 08:36:39;;;;;;;5.50;3.40;;;;;;;19.62;69.60;101606.78;5091043;28;20129;-75
2023/09/15 08:39:07;;;;;;;7.78;4.43;;;;;;;19.67;69.29;101607.28;5075473;28;20060;-74
2023/09/15 08:41:50;;;;;;;5.72;3.58;;;;;;;19.83;69.40;101620.22;5069783;28;20616;-75
2023/09/15 08:44:18;;;;;;;6.68;3.25;;;;;;;19.96;68.90;101601.38;5074551;28;20063;-75
2023/09/15 08:46:48;;;;;;;5.43;3.25;;;;;;;19.98;67.76;101602.06;5071772;28;20058;-74
2023/09/15 08:49:16;;;;;;;9.13;4.05;;;;;;;20.22;68.20;101605.38;5056846;28;20135;-73
2023/09/15 08:51:44;;;;;;;5.05;3.28;;;;;;;20.35;67.09;101602.50;5057621;28;20055;-76
2023/09/15 08:54:14;;;;;;;8.02;3.25;;;;;;;20.30;66.17;101606.53;5055951;28;20050;-76
2023/09/15 08:56:43;;;;;;;5.93;2.95;;;;;;;20.52;66.25;101598.44;5067919;28;20125;-74
2023/09/15 08:59:11;;;;;;;7.20;3.47;;;;;;;20.62;66.06;101598.47;5067077;28;20048;-75
2023/09/15 09:01:38;;;;;;;6.53;3.28;;;;;;;20.82;65.82;101602.13;5044059;28;20151;-75
2023/09/15 09:04:06;;;;;;;5.15;2.55;;;;;;;20.91;65.32;101590.63;5046551;28;20044;-76
2023/09/15 09:06:35;;;;;;;13.60;4.25;;;;;;;20.99;64.82;101601.50;5064795;28;20071;-75
2023/09/15 09:09:04;;;;;;;7.35;3.00;;;;;;;21.02;62.73;101601.22;5068031;28;20076;-75
2023/09/15 09:11:31;;;;;;;5.80;2.78;;;;;;;21.08;62.46;101592.69;5051499;28;20135;-74
2023/09/15 09:13:58;;;;;;;7.47;3.40;;;;;;;21.29;62.18;101597.09;5064204;28;20587;-76
2023/09/15 09:16:26;;;;;;;5.85;3.15;;;;;;;21.39;62.67;101596.19;5032629;28;20063;-75
2023/09/15 09:19:00;;;;;;;6.50;2.67;;;;;;;21.43;61.25;101599.41;5042466;28;20056;-75
2023/09/15 09:21:30;;;;;;;6.47;2.90;;;;;;;21.27;60.24;101599.06;5048620;28;20552;-76
2023/09/15 09:23:58;;;;;;;9.13;3.53;;;;;;;21.41;60.75;101588.84;5063838;28;20121;-77
2023/09/15 09:26:26;;;;;;;6.25;2.78;;;;;;;21.63;60.41;101597.66;5059450;28;20084;-76
2023/09/15 09:28:54;;;;;;;5.18;2.42;;;;;;;21.84;60.70;101598.38;5059793;28;20052;-76
2023/09/15 09:31:24;;;;;;;3.85;2.63;;;;;;;21.76;58.57;101600.91;5046189;28;20086;-74
2023/09/15 09:33:52;;;;;;;4.97;2.80;;;;;;;21.71;58.83;101598.66;5084691;28;20086;-73
2023/09/15 09:36:20;;;;;;;3.97;2.63;;;;;;;21.73;57.58;101591.31;5079839;28;20561;-76
2023/09/15 09:38:49;;;;;;;9.45;2.80;;;;;;;21.39;56.74;101588.16;5067602;28;20060;-77
2023/09/15 09:41:19;;;;;;;4.03;2.80;;;;;;;21.52;56.78;101595.91;5078881;28;20044;-76
2023/09/15 09:43:47;;;;;;;9.05;2.58;;;;;;;21.76;55.56;101589.34;5070808;28;20044;-75
2023/09/15 09:46:21;;;;;;;3.92;2.65;;;;;;;21.73;54.97;101582.41;5071983;28;20040;-77
2023/09/15 09:48:50;;;;;;;4.13;2.30;;;;;;;21.90;55.95;101587.09;5070448;28;20302;-75
2023/09/15 09:51:18;;;;;;;6.68;2.60;;;;;;;22.01;55.37;101580.72;5058154;28;20067;-76
2023/09/15 09:53:46;;;;;;;4.18;2.45;;;;;;;22.21;55.33;101590.50;5064687;28;20068;-73
2023/09/15 09:56:13;;;;;;;3.70;2.50;;;;;;;22.26;55.57;101586.56;5052573;28;20481;-75
2023/09/15 09:58:41;;;;;;;4.93;2.58;;;;;;;22.23;54.18;101576.94;5071292;28;20066;-75
2023/09/15 10:01:11;;;;;;;5.25;2.33;;;;;;;22.27;53.26;101578.34;5035282;28;20060;-75
2023/09/15 10:03:40;;;;;;;3.50;2.08;;;;;;;22.31;52.22;101576.22;5068056;28;20142;-75
2023/09/15 10:06:08;;;;;;;3.78;2.10;;;;;;;22.46;52.16;101572.09;5069997;28;20092;-76
2023/09/15 10:08:39;;;;;;;3.28;2.10;;;;;;;22.50;53.24;101570.81;5068022;28;20040;-76
2023/09/15 10:11:07;;;;;;;5.40;2.50;;;;;;;22.75;51.85;101561.28;5055824;28;20131;-76
2023/09/15 10:13:35;;;;;;;5.78;2.70;;;;;;;22.77;50.74;101570.03;5068962;28;20054;-73
2023/09/15 10:16:03;;;;;;;2.92;2.17;;;;;;;22.80;50.89;101552.81;5069230;28;20055;-72
2023/09/15 10:18:30;;;;;;;4.10;2.03;;;;;;;22.82;50.54;101551.63;5082229;28;20072;-72
2023/09/15 10:20:58;;;;;;;3.45;2.20;;;;;;;22.85;50.38;101553.19;5063672;28;20094;-72
2023/09/15 10:23:25;;;;;;;4.22;2.22;;;;;;;23.02;51.11;101549.75;5088041;28;20081;-80
2023/09/15 10:25:53;;;;;;;3.60;2.50;;;;;;;23.18;50.44;101557.16;5055090;28;20044;-75
2023/09/15 10:28:23;;;;;;;4.30;2.33;;;;;;;23.31;50.85;101554.97;5081742;28;20530;-68
2023/09/15 10:31:07;;;;;;;4.90;2.33;;;;;;;23.51;49.29;101558.38;5064544;28;20083;-72
2023/09/15 10:33:40;;;;;;;6.68;2.58;;;;;;;23.50;47.86;101554.84;5037121;28;20053;-70
2023/09/15 10:36:12;;;;;;;4.80;2.75;;;;;;;23.45;48.10;101545.53;5089516;28;20107;-73
2023/09/15 10:38:41;;;;;;;4.78;2.15;;;;;;;23.55;48.18;101548.16;5088809;28;20059;-72
2023/09/15 10:41:10;;;;;;;7.78;2.38;;;;;;;23.16;46.93;101543.88;5052029;28;20048;-72
2023/09/15 10:43:51;;;;;;;6.03;2.85;;;;;;;23.17;47.95;101547.41;5051401;28;20079;-73
2023/09/15 10:46:18;;;;;;;4.47;2.72;;;;;;;23.48;46.81;101545.25;5069908;28;20463;-71
2023/09/15 10:48:47;;;;;;;4.90;2.97;;;;;;;23.56;47.61;101539.94;5067185;28;20084;-73
2023/09/15 10:51:19;;;;;;;5.88;2.80;;;;;;;23.84;47.09;101534.53;5068728;28;20144;-73
2023/09/15 10:53:47;;;;;;;5.40;2.65;;;;;;;23.84;46.95;101529.16;5083107;28;20097;-72
2023/09/15 10:56:17;;;;;;;6.85;2.67;;;;;;;23.87;47.17;101534.22;5084959;28;20143;-71
2023/09/15 10:58:48;;;;;;;3.88;2.70;;;;;;;23.86;46.90;101527.97;5070539;28;20102;-72
2023/09/15 11:01:17;;;;;;;5.28;2.92;;;;;;;24.07;45.87;101522.28;5068165;28;20055;-71
2023/09/15 11:03:45;;;;;;;8.50;2.80;;;;;;;24.20;45.70;101514.63;5069698;28;20072;-73
2023/09/15 11:06:15;;;;;;;4.57;2.88;;;;;;;24.45;45.81;101515.69;5069524;28;20063;-74
2023/09/15 11:08:42;;;;;;;4.97;2.70;;;;;;;24.64;45.30;101509.22;5070189;28;20602;-72
2023/09/15 11:11:10;;;;;;;4.95;2.70;;;;;;;24.87;45.02;101508.66;5087821;28;20074;-74
2023/09/15 11:13:39;;;;;;;3.92;2.50;;;;;;;25.06;45.01;101507.53;5087207;28;20135;-74
2023/09/15 11:16:08;;;;;;;6.38;2.75;;;;;;;25.06;44.73;101502.97;5054313;28;20510;-72
2023/09/15 11:18:37;;;;;;;5.30;2.50;;;;;;;25.31;44.83;101506.63;5066407;28;20139;-73
2023/09/15 11:21:05;;;;;;;6.32;2.58;;;;;;;25.68;45.30;101508.84;5083250;28;20048;-72
2023/09/15 11:23:33;;;;;;;4.88;2.47;;;;;;;25.92;44.67;101505.34;5071134;28;20078;-72
2023/09/15 11:26:06;;;;;;;4.97;2.63;;;;;;;25.84;43.32;101509.91;5070938;28;20048;-74
2023/09/15 11:28:53;;;;;;;3.15;2.53;;;;;;;26.02;43.35;101497.91;5073397;28;20052;-73